createdAt,value
2023-01-07T00:00:01.674Z,93.08
2023-01-07T00:01:01.621Z,93.08
2023-01-07T00:02:01.634Z,93.08
2023-01-07T00:03:01.754Z,93.23
2023-01-07T00:04:01.666Z,93.18
2023-01-07T00:05:01.582Z,93.18
2023-01-07T00:06:01.574Z,93.29
2023-01-07T00:07:01.569Z,93.29
2023-01-07T00:08:01.578Z,93.29
2023-01-07T00:09:01.529Z,93.29
2023-01-07T00:10:01.535Z,93.39
2023-01-07T00:11:01.505Z,93.39
2023-01-07T00:12:01.503Z,93.60
2023-01-07T00:13:01.473Z,93.70
2023-01-07T00:14:01.461Z,93.70
2023-01-07T00:15:01.456Z,93.70
2023-01-07T00:16:01.505Z,93.70
2023-01-07T00:17:01.439Z,93.70
2023-01-07T00:18:01.421Z,93.80
2023-01-07T00:19:01.442Z,93.80
2023-01-07T00:20:01.398Z,93.70
2023-01-07T00:21:01.367Z,93.70
2023-01-07T00:22:01.377Z,93.70
2023-01-07T00:23:01.342Z,93.80
2023-01-07T00:24:01.331Z,93.80
2023-01-07T00:25:01.308Z,93.80
2023-01-07T00:26:01.311Z,93.80
2023-01-07T00:27:01.305Z,93.80
2023-01-07T00:28:01.290Z,94.01
2023-01-07T00:29:01.274Z,94.22
2023-01-07T00:30:01.278Z,94.22
2023-01-07T00:31:01.299Z,94.22
2023-01-07T00:32:01.243Z,94.43
2023-01-07T00:33:01.223Z,94.43
2023-01-07T00:34:01.218Z,94.53
2023-01-07T00:35:01.192Z,94.53
2023-01-07T00:36:01.188Z,94.53
2023-01-07T00:37:01.175Z,94.73
2023-01-07T00:38:01.159Z,94.84
2023-01-07T00:39:01.158Z,94.94
2023-01-07T00:40:01.130Z,94.94
2023-01-07T00:41:01.106Z,94.94
2023-01-07T00:42:01.113Z,94.94
2023-01-07T00:43:01.147Z,94.90
2023-01-07T00:44:01.077Z,95.10
2023-01-07T00:45:01.067Z,95.21
2023-01-07T00:46:01.053Z,95.31
2023-01-07T00:47:01.048Z,95.21
2023-01-07T00:48:01.027Z,95.21
2023-01-07T00:49:01.005Z,95.21
2023-01-07T00:50:01.000Z,95.31
2023-01-07T00:51:00.984Z,95.42
2023-01-07T00:52:00.984Z,95.42
2023-01-07T00:53:00.970Z,95.42
2023-01-07T00:54:00.968Z,95.42
2023-01-07T00:55:00.934Z,95.52
2023-01-07T00:56:00.923Z,95.62
2023-01-07T00:57:00.931Z,95.62
2023-01-07T00:58:00.885Z,95.73
2023-01-07T00:59:00.939Z,95.73
2023-01-07T01:00:00.863Z,95.83
2023-01-07T01:01:00.958Z,95.94
2023-01-07T01:02:00.903Z,96.03
2023-01-07T01:03:00.861Z,96.03
2023-01-07T01:04:00.820Z,96.14
2023-01-07T01:05:00.826Z,96.14
2023-01-07T01:06:00.787Z,96.14
2023-01-07T01:07:00.776Z,96.14
2023-01-07T01:08:00.776Z,96.14
2023-01-07T01:09:00.757Z,96.24
2023-01-07T01:10:00.748Z,96.34
2023-01-07T01:11:00.737Z,96.41
2023-01-07T01:12:00.706Z,96.51
2023-01-07T01:13:00.714Z,96.61
2023-01-07T01:14:00.694Z,96.72
2023-01-07T01:15:00.688Z,96.92
2023-01-07T01:16:00.698Z,97.02
2023-01-07T01:17:08.173Z,97.02
2023-01-07T01:18:09.350Z,97.02
2023-01-07T01:19:00.642Z,97.13
2023-01-07T01:20:08.142Z,97.13
2023-01-07T01:21:00.596Z,97.23
2023-01-07T01:22:00.601Z,97.33
2023-01-07T01:23:00.587Z,97.44
2023-01-07T01:24:00.557Z,97.54
2023-01-07T01:25:00.560Z,97.50
2023-01-07T01:26:00.534Z,97.71
2023-01-07T01:27:00.525Z,97.71
2023-01-07T01:28:00.525Z,97.81
2023-01-07T01:29:00.503Z,97.91
2023-01-07T01:30:00.493Z,98.01
2023-01-07T01:31:00.482Z,98.01
2023-01-07T01:32:00.453Z,98.11
2023-01-07T01:33:00.473Z,98.22
2023-01-07T01:34:00.441Z,98.22
2023-01-07T01:35:00.425Z,98.22
2023-01-07T01:36:00.418Z,98.32
2023-01-07T01:37:00.393Z,98.32
2023-01-07T01:38:00.431Z,98.38
2023-01-07T01:39:00.382Z,98.49
2023-01-07T01:40:00.350Z,98.49
2023-01-07T01:41:00.383Z,98.58
2023-01-07T01:42:00.361Z,98.69
2023-01-07T01:43:00.332Z,98.69
2023-01-07T01:44:00.294Z,98.69
2023-01-07T01:45:00.292Z,98.79
2023-01-07T01:46:00.278Z,98.90
2023-01-07T01:47:00.280Z,98.90
2023-01-07T01:48:00.268Z,99.00
2023-01-07T01:49:00.248Z,99.00
2023-01-07T01:50:00.238Z,99.10
2023-01-07T01:51:00.220Z,99.06
2023-01-07T01:52:00.203Z,99.16
2023-01-07T01:53:00.195Z,99.26
2023-01-07T01:54:00.170Z,99.26
2023-01-07T01:55:00.177Z,99.37
2023-01-07T01:56:00.181Z,99.37
2023-01-07T01:57:00.148Z,99.47
2023-01-07T01:58:00.127Z,99.47
2023-01-07T01:59:00.116Z,99.47
2023-01-07T02:00:00.114Z,99.47
2023-01-07T02:01:00.232Z,99.57
2023-01-07T02:02:00.203Z,99.57
2023-01-07T02:03:00.111Z,99.68
2023-01-07T02:04:00.127Z,99.63
2023-01-07T02:05:00.041Z,99.63
2023-01-07T02:06:00.018Z,99.73
2023-01-07T02:07:00.021Z,99.73
2023-01-07T02:08:00.004Z,99.73
2023-01-07T02:08:59.984Z,99.84
2023-01-07T02:09:59.966Z,99.84
2023-01-07T02:10:59.956Z,99.84
2023-01-07T02:11:59.963Z,99.94
2023-01-07T02:12:59.940Z,99.94
2023-01-07T02:13:59.923Z,99.99
2023-01-07T02:14:59.903Z,99.99
2023-01-07T02:15:59.932Z,99.99
2023-01-07T02:16:59.898Z,99.99
2023-01-07T02:17:59.869Z,99.99
2023-01-07T02:18:59.848Z,99.99
2023-01-07T02:19:59.845Z,99.99
2023-01-07T02:20:59.825Z,99.99
2023-01-07T02:21:59.815Z,99.99
2023-01-07T02:22:59.830Z,99.99
2023-01-07T02:23:59.787Z,99.99
2023-01-07T02:24:59.791Z,99.99
2023-01-07T02:25:59.759Z,99.99
2023-01-07T02:26:59.783Z,99.99
2023-01-07T02:27:59.746Z,99.99
2023-01-07T02:28:59.737Z,99.99
2023-01-07T02:29:59.721Z,99.99
2023-01-07T02:30:59.689Z,99.99
2023-01-07T02:31:59.752Z,99.99
2023-01-07T02:32:59.718Z,99.99
2023-01-07T02:33:59.659Z,99.99
2023-01-07T02:34:59.636Z,99.99
2023-01-07T02:35:59.638Z,99.99
2023-01-07T02:36:59.617Z,99.99
2023-01-07T02:37:59.605Z,99.99
2023-01-07T02:38:59.606Z,99.99
2023-01-07T02:39:59.579Z,99.99
2023-01-07T02:40:59.565Z,99.99
2023-01-07T02:41:59.568Z,99.99
2023-01-07T02:42:59.578Z,99.99
2023-01-07T02:43:59.528Z,99.99
2023-01-07T02:44:59.515Z,99.90
2023-01-07T02:45:59.568Z,99.79
2023-01-07T02:46:59.495Z,99.69
2023-01-07T02:47:59.487Z,99.58
2023-01-07T02:48:59.472Z,99.58
2023-01-07T02:49:59.452Z,99.48
2023-01-07T02:50:59.435Z,99.38
2023-01-07T02:51:59.449Z,99.38
2023-01-07T02:52:59.418Z,99.27
2023-01-07T02:53:59.394Z,99.17
2023-01-07T02:54:59.381Z,99.17
2023-01-07T02:55:59.366Z,99.07
2023-01-07T02:56:59.356Z,98.97
2023-01-07T02:57:59.379Z,98.86
2023-01-07T02:58:59.315Z,98.86
2023-01-07T02:59:59.312Z,98.86
2023-01-07T03:00:59.407Z,98.76
2023-01-07T03:01:59.388Z,98.76
2023-01-07T03:02:59.301Z,98.76
2023-01-07T03:03:59.302Z,98.66
2023-01-07T03:04:59.249Z,98.66
2023-01-07T03:05:59.242Z,98.55
2023-01-07T03:06:59.237Z,98.55
2023-01-07T03:07:59.223Z,98.55
2023-01-07T03:08:59.195Z,98.55
2023-01-07T03:09:59.182Z,98.55
2023-01-07T03:10:59.214Z,98.55
2023-01-07T03:11:59.159Z,98.55
2023-01-07T03:12:59.165Z,98.45
2023-01-07T03:13:59.136Z,98.45
2023-01-07T03:14:59.155Z,98.45
2023-01-07T03:15:59.106Z,98.45
2023-01-07T03:16:59.091Z,98.45
2023-01-07T03:17:59.082Z,98.45
2023-01-07T03:18:59.071Z,98.35
2023-01-07T03:19:59.039Z,98.35
2023-01-07T03:20:59.048Z,98.35
2023-01-07T03:21:59.026Z,98.30
2023-01-07T03:22:59.021Z,98.30
2023-01-07T03:24:01.800Z,98.24
2023-01-07T03:24:58.979Z,98.10
2023-01-07T03:25:59.011Z,98.10
2023-01-07T03:26:58.975Z,98.14
2023-01-07T03:27:58.940Z,98.10
2023-01-07T03:28:58.954Z,98.10
2023-01-07T03:29:58.947Z,98.10
2023-01-07T03:30:58.921Z,98.10
2023-01-07T03:31:58.940Z,98.10
2023-01-07T03:32:58.906Z,98.10
2023-01-07T03:33:58.873Z,98.10
2023-01-07T03:34:59.138Z,98.20
2023-01-07T03:35:58.861Z,98.20
2023-01-07T03:36:58.830Z,98.20
2023-01-07T03:37:58.824Z,98.30
2023-01-07T03:38:58.859Z,98.41
2023-01-07T03:39:58.812Z,98.41
2023-01-07T03:40:58.783Z,98.41
2023-01-07T03:41:58.791Z,98.50
2023-01-07T03:42:58.765Z,98.50
2023-01-07T03:43:58.771Z,98.50
2023-01-07T03:44:58.738Z,98.61
2023-01-07T03:45:58.815Z,98.61
2023-01-07T03:46:58.712Z,98.61
2023-01-07T03:47:58.705Z,98.71
2023-01-07T03:48:58.688Z,98.71
2023-01-07T03:49:58.646Z,98.82
2023-01-07T03:50:58.662Z,98.82
2023-01-07T03:51:58.665Z,98.92
2023-01-07T03:52:58.617Z,98.92
2023-01-07T03:53:58.633Z,98.92
2023-01-07T03:54:58.588Z,98.92
2023-01-07T03:55:58.582Z,98.92
2023-01-07T03:56:58.582Z,99.02
2023-01-07T03:57:58.563Z,99.02
2023-01-07T03:58:58.566Z,98.97
2023-01-07T03:59:58.539Z,98.97
2023-01-07T04:00:58.613Z,98.97
2023-01-07T04:01:58.656Z,99.08
2023-01-07T04:02:58.614Z,99.08
2023-01-07T04:03:58.556Z,99.08
2023-01-07T04:04:58.500Z,99.08
2023-01-07T04:05:58.455Z,99.18
2023-01-07T04:06:58.450Z,99.18
2023-01-07T04:07:58.419Z,99.18
2023-01-07T04:08:58.414Z,99.18
2023-01-07T04:09:58.408Z,99.18
2023-01-07T04:10:58.404Z,99.18
2023-01-07T04:11:58.373Z,99.18
2023-01-07T04:12:58.364Z,99.18
2023-01-07T04:13:58.346Z,99.18
2023-01-07T04:14:59.329Z,99.18
2023-01-07T04:15:58.346Z,99.18
2023-01-07T04:16:58.355Z,99.18
2023-01-07T04:17:58.305Z,99.18
2023-01-07T04:18:58.330Z,99.08
2023-01-07T04:19:58.261Z,99.08
2023-01-07T04:20:58.257Z,99.08
2023-01-07T04:21:58.245Z,98.97
2023-01-07T04:22:58.235Z,98.97
2023-01-07T04:23:58.231Z,98.97
2023-01-07T04:24:58.214Z,98.88
2023-01-07T04:25:58.214Z,98.88
2023-01-07T04:26:58.193Z,98.88
2023-01-07T04:27:58.146Z,98.88
2023-01-07T04:28:58.173Z,98.77
2023-01-07T04:29:58.155Z,98.77
2023-01-07T04:30:58.146Z,98.67
2023-01-07T04:31:58.110Z,98.57
2023-01-07T04:32:58.106Z,98.46
2023-01-07T04:33:58.102Z,98.36
2023-01-07T04:34:58.066Z,98.36
2023-01-07T04:35:58.170Z,98.25
2023-01-07T04:36:58.054Z,98.15
2023-01-07T04:37:58.014Z,98.05
2023-01-07T04:38:58.040Z,98.05
2023-01-07T04:39:58.001Z,97.95
2023-01-07T04:40:57.993Z,97.85
2023-01-07T04:41:57.962Z,97.85
2023-01-07T04:42:57.963Z,97.74
2023-01-07T04:43:57.962Z,97.64
2023-01-07T04:44:57.951Z,97.53
2023-01-07T04:45:57.930Z,97.53
2023-01-07T04:46:57.920Z,97.43
2023-01-07T04:47:57.898Z,97.43
2023-01-07T04:48:57.910Z,97.43
2023-01-07T04:49:57.873Z,97.43
2023-01-07T04:50:57.854Z,97.33
2023-01-07T04:51:57.830Z,97.33
2023-01-07T04:52:57.824Z,97.33
2023-01-07T04:53:57.833Z,97.23
2023-01-07T04:54:57.803Z,97.23
2023-01-07T04:55:57.786Z,97.13
2023-01-07T04:56:57.788Z,97.02
2023-01-07T04:57:57.769Z,96.96
2023-01-07T04:58:57.761Z,96.96
2023-01-07T04:59:57.757Z,96.96
2023-01-07T05:00:57.780Z,96.86
2023-01-07T05:01:57.892Z,96.86
2023-01-07T05:02:57.726Z,96.75
2023-01-07T05:03:57.711Z,96.75
2023-01-07T05:04:57.661Z,96.66
2023-01-07T05:05:57.670Z,96.66
2023-01-07T05:06:57.653Z,96.55
2023-01-07T05:07:57.650Z,96.45
2023-01-07T05:08:57.628Z,96.45
2023-01-07T05:09:57.611Z,96.34
2023-01-07T05:10:57.593Z,96.24
2023-01-07T05:11:57.574Z,96.24
2023-01-07T05:12:57.568Z,96.14
2023-01-07T05:13:57.584Z,96.03
2023-01-07T05:14:57.540Z,96.03
2023-01-07T05:15:57.540Z,95.93
2023-01-07T05:16:57.554Z,95.83
2023-01-07T05:17:57.508Z,95.83
2023-01-07T05:18:57.519Z,95.73
2023-01-07T05:19:57.482Z,95.73
2023-01-07T05:20:57.466Z,95.62
2023-01-07T05:21:57.456Z,95.62
2023-01-07T05:22:57.466Z,95.62
2023-01-07T05:23:57.435Z,95.56
2023-01-07T05:24:57.422Z,95.56
2023-01-07T05:25:57.419Z,95.46
2023-01-07T05:26:57.408Z,95.46
2023-01-07T05:27:57.395Z,95.46
2023-01-07T05:28:57.364Z,95.46
2023-01-07T05:29:57.364Z,95.46
2023-01-07T05:30:57.406Z,95.36
2023-01-07T05:31:57.343Z,95.36
2023-01-07T05:32:57.311Z,95.36
2023-01-07T05:33:57.326Z,95.36
2023-01-07T05:34:57.300Z,95.25
2023-01-07T05:35:57.291Z,95.25
2023-01-07T05:36:57.258Z,95.25
2023-01-07T05:37:57.249Z,95.25
2023-01-07T05:38:57.251Z,95.25
2023-01-07T05:39:57.224Z,95.25
2023-01-07T05:40:57.219Z,95.25
2023-01-07T05:41:57.202Z,95.25
2023-01-07T05:42:57.179Z,95.25
2023-01-07T05:43:57.189Z,95.25
2023-01-07T05:44:57.171Z,95.25
2023-01-07T05:45:57.203Z,95.25
2023-01-07T05:46:57.123Z,95.25
2023-01-07T05:47:57.130Z,95.25
2023-01-07T05:48:57.123Z,95.25
2023-01-07T05:49:57.162Z,95.25
2023-01-07T05:50:57.081Z,95.25
2023-01-07T05:51:57.064Z,95.36
2023-01-07T05:52:57.052Z,95.36
2023-01-07T05:53:57.074Z,95.36
2023-01-07T05:54:57.034Z,95.46
2023-01-07T05:55:57.047Z,95.50
2023-01-07T05:56:57.004Z,95.46
2023-01-07T05:57:56.994Z,95.46
2023-01-07T05:58:56.983Z,95.46
2023-01-07T05:59:56.998Z,95.50
2023-01-07T06:00:57.035Z,95.46
2023-01-07T06:01:56.956Z,95.46
2023-01-07T06:02:57.037Z,95.46
2023-01-07T06:03:57.000Z,95.56
2023-01-07T06:04:56.979Z,95.56
2023-01-07T06:05:56.897Z,95.67
2023-01-07T06:06:56.897Z,95.67
2023-01-07T06:07:56.874Z,95.87
2023-01-07T06:08:56.870Z,96.08
2023-01-07T06:09:56.859Z,96.18
2023-01-07T06:10:56.828Z,96.28
2023-01-07T06:11:56.816Z,96.28
2023-01-07T06:12:56.802Z,96.18
2023-01-07T06:13:56.832Z,96.28
2023-01-07T06:14:56.814Z,96.28
2023-01-07T06:15:56.822Z,96.28
2023-01-07T06:16:56.785Z,96.28
2023-01-07T06:17:56.732Z,96.18
2023-01-07T06:18:56.750Z,96.18
2023-01-07T06:19:56.736Z,96.18
2023-01-07T06:20:56.718Z,96.18
2023-01-07T06:21:56.842Z,96.18
2023-01-07T06:22:56.752Z,96.18
2023-01-07T06:23:56.704Z,96.18
2023-01-07T06:24:56.648Z,96.18
2023-01-07T06:25:56.649Z,96.18
2023-01-07T06:26:56.642Z,96.08
2023-01-07T06:27:56.608Z,96.08
2023-01-07T06:28:56.636Z,96.18
2023-01-07T06:29:56.602Z,96.08
2023-01-07T06:30:56.644Z,96.08
2023-01-07T06:31:56.598Z,96.08
2023-01-07T06:32:56.565Z,95.98
2023-01-07T06:33:56.645Z,95.98
2023-01-07T06:34:56.645Z,96.08
2023-01-07T06:35:56.524Z,96.08
2023-01-07T06:36:56.519Z,96.18
2023-01-07T06:37:56.489Z,96.18
2023-01-07T06:38:56.514Z,96.18
2023-01-07T06:39:56.511Z,96.18
2023-01-07T06:40:56.470Z,96.08
2023-01-07T06:41:56.436Z,96.08
2023-01-07T06:42:56.460Z,96.08
2023-01-07T06:43:56.442Z,96.08
2023-01-07T06:44:56.436Z,96.08
2023-01-07T06:45:56.530Z,96.18
2023-01-07T06:46:56.408Z,96.18
2023-01-07T06:47:56.357Z,96.28
2023-01-07T06:48:56.385Z,96.18
2023-01-07T06:49:56.370Z,96.18
2023-01-07T06:50:56.350Z,96.18
2023-01-07T06:51:56.355Z,96.18
2023-01-07T06:52:56.372Z,96.18
2023-01-07T06:53:56.315Z,96.18
2023-01-07T06:54:56.311Z,96.18
2023-01-07T06:55:56.272Z,96.18
2023-01-07T06:56:56.298Z,96.18
2023-01-07T06:57:56.278Z,96.18
2023-01-07T06:58:56.259Z,96.18
2023-01-07T06:59:56.257Z,96.18
2023-01-07T07:00:56.211Z,96.18
2023-01-07T07:01:56.481Z,96.18
2023-01-07T07:02:56.248Z,96.18
2023-01-07T07:03:56.212Z,96.18
2023-01-07T07:04:56.220Z,96.18
2023-01-07T07:05:56.136Z,96.18
2023-01-07T07:06:56.112Z,96.28
2023-01-07T07:07:56.209Z,96.28
2023-01-07T07:08:56.134Z,96.28
2023-01-07T07:09:56.116Z,96.28
2023-01-07T07:10:56.091Z,96.28
2023-01-07T07:11:56.121Z,96.28
2023-01-07T07:12:56.045Z,96.28
2023-01-07T07:13:56.047Z,96.28
2023-01-07T07:14:56.070Z,96.28
2023-01-07T07:15:56.082Z,96.28
2023-01-07T07:16:56.189Z,96.28
2023-01-07T07:17:56.006Z,96.28
2023-01-07T07:18:56.238Z,96.28
2023-01-07T07:19:55.971Z,96.28
2023-01-07T07:20:56.050Z,96.28
2023-01-07T07:21:55.979Z,96.18
2023-01-07T07:22:56.018Z,96.18
2023-01-07T07:23:56.030Z,96.18
2023-01-07T07:24:55.906Z,96.08
2023-01-07T07:25:55.890Z,96.08
2023-01-07T07:26:55.859Z,96.08
2023-01-07T07:27:55.837Z,96.18
2023-01-07T07:28:55.938Z,96.18
2023-01-07T07:29:55.866Z,96.08
2023-01-07T07:30:55.883Z,96.08
2023-01-07T07:31:55.812Z,96.28
2023-01-07T07:32:55.771Z,96.39
2023-01-07T07:33:55.774Z,96.39
2023-01-07T07:34:55.771Z,96.39
2023-01-07T07:35:55.734Z,96.28
2023-01-07T07:36:55.744Z,96.28
2023-01-07T07:37:55.722Z,96.28
2023-01-07T07:38:55.729Z,96.28
2023-01-07T07:39:55.708Z,96.28
2023-01-07T07:40:55.696Z,96.18
2023-01-07T07:41:55.677Z,96.28
2023-01-07T07:43:10.835Z,96.18
2023-01-07T07:43:56.647Z,96.18
2023-01-07T07:44:55.661Z,96.18
2023-01-07T07:45:55.629Z,96.28
2023-01-07T07:46:55.678Z,96.28
2023-01-07T07:47:55.590Z,96.28
2023-01-07T07:48:55.577Z,96.28
2023-01-07T07:49:55.566Z,96.24
2023-01-07T07:50:55.541Z,96.24
2023-01-07T07:51:55.614Z,96.24
2023-01-07T07:52:55.524Z,96.34
2023-01-07T07:53:55.542Z,96.34
2023-01-07T07:54:55.542Z,96.34
2023-01-07T07:55:56.498Z,96.24
2023-01-07T07:56:55.466Z,96.24
2023-01-07T07:57:55.461Z,96.34
2023-01-07T07:58:55.463Z,96.45
2023-01-07T07:59:55.466Z,96.34
2023-01-07T08:00:55.516Z,96.45
2023-01-07T08:01:55.456Z,96.45
2023-01-07T08:02:55.445Z,96.34
2023-01-07T08:03:55.415Z,96.34
2023-01-07T08:04:55.384Z,96.45
2023-01-07T08:05:55.361Z,96.45
2023-01-07T08:06:55.332Z,96.45
2023-01-07T08:07:55.336Z,96.55
2023-01-07T08:08:55.306Z,96.55
2023-01-07T08:09:55.333Z,96.66
2023-01-07T08:10:55.293Z,96.75
2023-01-07T08:11:55.322Z,96.86
2023-01-07T08:12:55.263Z,96.81
2023-01-07T08:13:55.287Z,96.81
2023-01-07T08:14:55.234Z,96.92
2023-01-07T08:15:55.285Z,96.92
2023-01-07T08:16:55.278Z,97.02
2023-01-07T08:17:55.209Z,97.02
2023-01-07T08:18:55.189Z,97.13
2023-01-07T08:19:55.174Z,97.13
2023-01-07T08:20:55.167Z,97.13
2023-01-07T08:21:55.159Z,97.23
2023-01-07T08:22:55.173Z,97.23
2023-01-07T08:23:55.119Z,97.33
2023-01-07T08:24:55.297Z,97.39
2023-01-07T08:25:55.092Z,97.49
2023-01-07T08:26:55.061Z,97.60
2023-01-07T08:27:55.061Z,97.60
2023-01-07T08:28:55.031Z,97.60
2023-01-07T08:29:55.037Z,97.69
2023-01-07T08:30:55.092Z,97.69
2023-01-07T08:31:54.991Z,97.69
2023-01-07T08:32:55.029Z,97.69
2023-01-07T08:33:54.990Z,97.80
2023-01-07T08:34:54.997Z,97.80
2023-01-07T08:35:54.960Z,97.75
2023-01-07T08:36:54.952Z,97.75
2023-01-07T08:37:54.936Z,97.75
2023-01-07T08:38:54.931Z,97.75
2023-01-07T08:39:54.952Z,97.75
2023-01-07T08:40:54.916Z,97.75
2023-01-07T08:41:54.889Z,97.75
2023-01-07T08:42:54.868Z,97.75
2023-01-07T08:43:54.871Z,97.75
2023-01-07T08:44:54.831Z,97.75
2023-01-07T08:45:54.853Z,97.75
2023-01-07T08:46:54.853Z,97.75
2023-01-07T08:47:54.797Z,97.75
2023-01-07T08:48:54.775Z,97.75
2023-01-07T08:49:54.795Z,97.75
2023-01-07T08:50:54.779Z,97.75
2023-01-07T08:51:54.757Z,97.71
2023-01-07T08:52:54.760Z,97.71
2023-01-07T08:53:54.737Z,97.71
2023-01-07T08:54:54.697Z,97.71
2023-01-07T08:55:54.695Z,97.71
2023-01-07T08:56:54.680Z,97.61
2023-01-07T08:57:54.706Z,97.61
2023-01-07T08:58:54.649Z,97.61
2023-01-07T08:59:54.641Z,97.61
2023-01-07T09:00:54.709Z,97.61
2023-01-07T09:01:54.748Z,97.61
2023-01-07T09:02:54.607Z,97.61
2023-01-07T09:03:54.676Z,97.61
2023-01-07T09:04:54.567Z,97.50
2023-01-07T09:05:54.567Z,97.50
2023-01-07T09:06:54.543Z,97.50
2023-01-07T09:07:54.547Z,97.50
2023-01-07T09:08:54.534Z,97.40
2023-01-07T09:09:54.507Z,97.40
2023-01-07T09:10:54.514Z,97.40
2023-01-07T09:11:54.493Z,97.40
2023-01-07T09:12:54.466Z,97.36
2023-01-07T09:13:54.438Z,97.40
2023-01-07T09:14:54.447Z,97.36
2023-01-07T09:15:54.458Z,97.36
2023-01-07T09:16:54.403Z,97.25
2023-01-07T09:17:54.451Z,97.25
2023-01-07T09:18:54.403Z,97.25
2023-01-07T09:19:54.387Z,97.25
2023-01-07T09:20:54.395Z,97.25
2023-01-07T09:21:54.336Z,97.25
2023-01-07T09:22:54.347Z,97.25
2023-01-07T09:23:54.314Z,97.25
2023-01-07T09:25:01.835Z,97.25
2023-01-07T09:25:54.297Z,97.25
2023-01-07T09:26:54.270Z,97.25
2023-01-07T09:27:54.246Z,97.25
2023-01-07T09:28:54.266Z,97.20
2023-01-07T09:29:54.228Z,97.10
2023-01-07T09:30:56.597Z,97.10
2023-01-07T09:31:54.285Z,97.10
2023-01-07T09:32:54.218Z,97.10
2023-01-07T09:33:54.192Z,97.00
2023-01-07T09:34:54.177Z,97.00
2023-01-07T09:35:54.156Z,96.90
2023-01-07T09:36:54.162Z,96.85
2023-01-07T09:37:54.138Z,96.95
2023-01-07T09:38:54.134Z,96.95
2023-01-07T09:39:54.136Z,96.95
2023-01-07T09:40:54.102Z,96.95
2023-01-07T09:41:54.085Z,97.06
2023-01-07T09:42:54.066Z,97.02
2023-01-07T09:43:59.367Z,97.12
2023-01-07T09:44:55.041Z,97.12
2023-01-07T09:45:54.112Z,97.12
2023-01-07T09:46:54.048Z,97.17
2023-01-07T09:47:54.009Z,97.17
2023-01-07T09:48:54.030Z,97.17
2023-01-07T09:49:53.998Z,97.28
2023-01-07T09:50:54.010Z,97.23
2023-01-07T09:51:54.002Z,97.33
2023-01-07T09:52:53.937Z,97.33
2023-01-07T09:53:53.932Z,97.33
2023-01-07T09:54:53.925Z,97.33
2023-01-07T09:56:11.265Z,97.44
2023-01-07T09:56:54.888Z,97.44
2023-01-07T09:57:53.931Z,97.39
2023-01-07T09:58:53.865Z,97.39
2023-01-07T09:59:53.837Z,97.39
2023-01-07T10:00:53.977Z,97.39
2023-01-07T10:01:53.836Z,97.39
2023-01-07T10:02:53.820Z,97.39
2023-01-07T10:03:53.857Z,97.29
2023-01-07T10:04:53.785Z,97.29
2023-01-07T10:05:53.785Z,97.19
2023-01-07T10:06:53.763Z,97.14
2023-01-07T10:07:53.745Z,97.04
2023-01-07T10:08:54.725Z,97.04
2023-01-07T10:09:53.704Z,97.04
2023-01-07T10:10:53.715Z,96.94
2023-01-07T10:11:53.795Z,96.94
2023-01-07T10:12:53.687Z,97.04
2023-01-07T10:13:53.668Z,97.04
2023-01-07T10:14:53.695Z,96.99
2023-01-07T10:15:54.574Z,96.89
2023-01-07T10:16:53.639Z,96.89
2023-01-07T10:17:53.610Z,96.89
2023-01-07T10:18:53.593Z,96.79
2023-01-07T10:19:53.624Z,96.69
2023-01-07T10:20:53.600Z,96.07
2023-01-07T10:21:53.562Z,95.82
2023-01-07T10:22:53.752Z,95.72
2023-01-07T10:23:53.534Z,95.62
2023-01-07T10:24:53.503Z,95.62
2023-01-07T10:25:53.514Z,95.31
2023-01-07T10:26:53.510Z,95.10
2023-01-07T10:27:53.475Z,95.00
2023-01-07T10:28:53.463Z,94.90
2023-01-07T10:29:53.451Z,94.49
2023-01-07T10:30:53.456Z,94.29
2023-01-07T10:31:53.544Z,94.24
2023-01-07T10:32:53.412Z,94.34
2023-01-07T10:33:53.413Z,93.84
2023-01-07T10:34:53.395Z,93.63
2023-01-07T10:35:53.827Z,93.32
2023-01-07T10:36:53.377Z,93.22
2023-01-07T10:37:53.346Z,93.12
2023-01-07T10:38:53.368Z,93.32
2023-01-07T10:39:53.311Z,93.52
2023-01-07T10:40:53.316Z,93.63
2023-01-07T10:41:53.301Z,93.73
2023-01-07T10:42:53.299Z,93.84
2023-01-07T10:43:53.291Z,93.89
2023-01-07T10:44:53.294Z,93.89
2023-01-07T10:45:53.289Z,93.89
2023-01-07T10:46:53.245Z,93.69
2023-01-07T10:47:53.219Z,93.59
2023-01-07T10:48:53.223Z,92.97
2023-01-07T10:49:53.189Z,92.97
2023-01-07T10:50:53.180Z,92.87
2023-01-07T10:51:53.162Z,92.77
2023-01-07T10:52:53.154Z,92.97
2023-01-07T10:53:53.151Z,92.97
2023-01-07T10:54:53.141Z,92.87
2023-01-07T10:55:53.120Z,93.07
2023-01-07T10:56:53.108Z,93.28
2023-01-07T10:57:53.087Z,93.48
2023-01-07T10:58:53.076Z,93.65
2023-01-07T10:59:53.063Z,93.74
2023-01-07T11:00:53.229Z,93.85
2023-01-07T11:01:53.283Z,93.74
2023-01-07T11:02:53.127Z,93.74
2023-01-07T11:03:53.022Z,93.85
2023-01-07T11:04:53.000Z,93.85
2023-01-07T11:05:53.000Z,93.85
2023-01-07T11:06:52.970Z,93.65
2023-01-07T11:07:52.965Z,93.44
2023-01-07T11:08:52.960Z,93.33
2023-01-07T11:09:52.932Z,93.19
2023-01-07T11:10:52.923Z,93.19
2023-01-07T11:11:52.911Z,93.19
2023-01-07T11:12:52.907Z,93.19
2023-01-07T11:13:52.880Z,93.09
2023-01-07T11:14:52.871Z,92.47
2023-01-07T11:15:52.862Z,92.17
2023-01-07T11:16:52.955Z,91.76
2023-01-07T11:17:52.818Z,91.82
2023-01-07T11:18:52.827Z,92.02
2023-01-07T11:19:52.816Z,92.33
2023-01-07T11:20:52.837Z,92.64
2023-01-07T11:21:52.795Z,92.84
2023-01-07T11:22:52.774Z,92.84
2023-01-07T11:23:52.749Z,92.84
2023-01-07T11:24:52.751Z,92.84
2023-01-07T11:25:52.717Z,92.23
2023-01-07T11:26:52.733Z,91.61
2023-01-07T11:27:52.702Z,91.72
2023-01-07T11:28:52.713Z,91.82
2023-01-07T11:29:52.688Z,91.82
2023-01-07T11:30:52.700Z,91.98
2023-01-07T11:31:52.733Z,91.98
2023-01-07T11:32:52.637Z,92.19
2023-01-07T11:34:02.305Z,92.29
2023-01-07T11:34:53.608Z,92.29
2023-01-07T11:35:52.604Z,92.29
2023-01-07T11:36:52.590Z,92.29
2023-01-07T11:37:52.574Z,92.29
2023-01-07T11:38:52.559Z,92.29
2023-01-07T11:39:52.540Z,92.29
2023-01-07T11:40:52.528Z,92.14
2023-01-07T11:41:52.531Z,92.14
2023-01-07T11:42:52.519Z,92.14
2023-01-07T11:43:52.488Z,91.33
2023-01-07T11:44:52.498Z,90.31
2023-01-07T11:46:19.538Z,90.41
2023-01-07T11:46:53.544Z,90.71
2023-01-07T11:47:52.444Z,90.20
2023-01-07T11:48:52.437Z,88.12
2023-01-07T11:49:52.419Z,88.53
2023-01-07T11:50:52.420Z,87.61
2023-01-07T11:51:52.390Z,87.71
2023-01-07T11:52:52.367Z,88.17
2023-01-07T11:53:52.397Z,87.76
2023-01-07T11:54:52.358Z,88.17
2023-01-07T11:55:52.337Z,88.67
2023-01-07T11:56:54.163Z,88.57
2023-01-07T11:57:52.309Z,89.08
2023-01-07T11:58:52.326Z,89.08
2023-01-07T11:59:52.293Z,89.28
2023-01-07T12:00:52.292Z,88.17
2023-01-07T12:01:52.261Z,88.06
2023-01-07T12:02:52.257Z,87.65
2023-01-07T12:03:52.321Z,87.85
2023-01-07T12:04:52.216Z,88.06
2023-01-07T12:05:52.198Z,87.04
2023-01-07T12:06:52.206Z,87.76
2023-01-07T12:07:52.184Z,87.76
2023-01-07T12:08:52.166Z,87.85
2023-01-07T12:09:52.168Z,87.85
2023-01-07T12:10:52.150Z,88.26
2023-01-07T12:11:52.129Z,88.57
2023-01-07T12:12:52.576Z,88.67
2023-01-07T12:13:52.130Z,88.98
2023-01-07T12:14:52.097Z,89.28
2023-01-07T12:15:52.095Z,89.49
2023-01-07T12:16:52.163Z,89.59
2023-01-07T12:17:52.057Z,89.69
2023-01-07T12:18:52.036Z,89.69
2023-01-07T12:19:52.019Z,89.79
2023-01-07T12:20:52.033Z,90.00
2023-01-07T12:21:52.008Z,89.79
2023-01-07T12:22:51.986Z,89.39
2023-01-07T12:23:52.975Z,88.17
2023-01-07T12:24:51.958Z,86.73
2023-01-07T12:25:51.968Z,86.73
2023-01-07T12:26:51.933Z,87.24
2023-01-07T12:27:51.913Z,87.96
2023-01-07T12:28:51.919Z,86.73
2023-01-07T12:29:51.893Z,86.94
2023-01-07T12:30:51.883Z,87.65
2023-01-07T12:31:51.875Z,87.76
2023-01-07T12:32:51.854Z,88.06
2023-01-07T12:33:51.846Z,88.37
2023-01-07T12:34:51.851Z,88.47
2023-01-07T12:35:51.819Z,87.55
2023-01-07T12:36:51.824Z,86.02
2023-01-07T12:37:51.773Z,86.53
2023-01-07T12:38:51.784Z,87.35
2023-01-07T12:39:53.769Z,87.85
2023-01-07T12:40:51.774Z,87.85
2023-01-07T12:41:51.747Z,86.22
2023-01-07T12:42:51.734Z,86.83
2023-01-07T12:43:52.552Z,86.73
2023-01-07T12:44:51.695Z,87.04
2023-01-07T12:45:51.767Z,87.65
2023-01-07T12:46:51.701Z,88.06
2023-01-07T12:47:51.669Z,88.37
2023-01-07T12:48:51.660Z,88.47
2023-01-07T12:49:51.632Z,88.78
2023-01-07T12:50:51.626Z,88.88
2023-01-07T12:51:51.620Z,88.17